Bahri Yanbu — HZFH — position and weather

sailwx.info

Track history (hours):
 
Tides and Currents Weather Stations Pressure Air Temp Water Temp Dewpoint Dewpoint Depression Visibility Wind Speed Wind Dir Waves Ship Positions

Bahri Yanbu

Last reported at 2017-Dec-11 17:00 UTC. Time now 2017-Dec-12 02:58 UTC.
Position N 29°32' W 094°54'.

Length 205 m; draft 7.8 m.

Type: Cargo ship. MMSI: 403532001.

Date/timePositionNaut miles runAvg speedWind from/ knotsBaromVisibWave heightAir tempDewpointWater temp
2017-Dec-11 17:00N 29°32' W 094°54'612.2
2017-Dec-11 16:30N 29°37' W 094°58'510.7
2017-Dec-11 16:00N 29°42' W 095°01'4 8.4
2017-Dec-11 15:30N 29°45' W 095°04'3 6.2
2017-Dec-11 15:00N 29°44' W 095°07'3 6.6
2017-Dec-11 14:30N 29°45' W 095°11'3 5.7
2017-Dec-11 14:00N 29°43' W 095°14'2 3.8
2017-Dec-11 13:26N 29°44' W 095°16'0 0.7
2017-Dec-11 12:57N 29°44' W 095°16'0 0.0
2017-Dec-11 12:27N 29°44' W 095°16'0 0.0
2017-Dec-11 11:54N 29°44' W 095°16'0 0.0
2017-Dec-11 11:30N 29°44' W 095°16'0 0.0
2017-Dec-11 10:57N 29°44' W 095°16'0 0.0
2017-Dec-11 10:30N 29°44' W 095°16'0 0.0
2017-Dec-11 09:50N 29°44' W 095°16'0 0.0
2017-Dec-11 09:29N 29°44' W 095°16'0 0.0
2017-Dec-11 08:47N 29°44' W 095°16'0 0.0
2017-Dec-11 08:29N 29°44' W 095°16'0 0.0
2017-Dec-11 07:53N 29°44' W 095°16'0 0.0
2017-Dec-11 06:59N 29°44' W 095°16'0 0.0
2017-Dec-11 06:26N 29°44' W 095°16'0 0.0
2017-Dec-11 05:59N 29°44' W 095°16'0 0.0
2017-Dec-11 05:23N 29°44' W 095°16'0 0.0
2017-Dec-11 04:56N 29°44' W 095°16'0 0.0
2017-Dec-11 04:20N 29°44' W 095°16'0 0.0
2017-Dec-11 03:47N 29°44' W 095°16'0 0.0
2017-Dec-11 03:11N 29°44' W 095°16'0 0.0
2017-Dec-11 02:59N 29°44' W 095°16'0 0.0
2017-Dec-11 02:14N 29°44' W 095°16'0 0.0
2017-Dec-11 01:53N 29°44' W 095°16'0 0.0
2017-Dec-11 01:17N 29°44' W 095°16'0 0.0
2017-Dec-11 00:56N 29°44' W 095°16'0 0.0
2017-Dec-10 19:14N 29°44' W 095°16'0 0.0
2017-Dec-10 18:59N 29°44' W 095°16'0 0.0
2017-Dec-10 18:20N 29°44' W 095°16'0 0.0
2017-Dec-10 17:50N 29°44' W 095°16'0 0.0
2017-Dec-10 17:14N 29°44' W 095°16'0 0.0
2017-Dec-10 16:56N 29°44' W 095°16'0 0.0
2017-Dec-10 16:26N 29°44' W 095°16'0 0.0
2017-Dec-10 15:53N 29°44' W 095°16'0 0.0
2017-Dec-10 15:29N 29°44' W 095°16'0 0.0
2017-Dec-10 14:59N 29°44' W 095°16'0 0.0
2017-Dec-10 14:26N 29°44' W 095°16'0 0.0
2017-Dec-10 13:53N 29°44' W 095°16'0 0.0
2017-Dec-10 13:26N 29°44' W 095°16'0 0.0
2017-Dec-10 12:32N 29°44' W 095°16'0 0.1
2017-Dec-10 12:29N 29°44' W 095°16'0 0.0
2017-Dec-10 11:50N 29°44' W 095°16'0 0.0
2017-Dec-10 11:26N 29°44' W 095°16'0 0.0
2017-Dec-10 10:38N 29°44' W 095°16'0 0.0
2017-Dec-10 10:11N 29°44' W 095°16'0 0.0
2017-Dec-10 09:56N 29°44' W 095°16'0 0.0
2017-Dec-10 09:20N 29°44' W 095°16'0 0.0
2017-Dec-10 08:59N 29°44' W 095°16'0 0.0
2017-Dec-10 08:26N 29°44' W 095°16'0 0.0
2017-Dec-10 07:59N 29°44' W 095°16'0 0.0
2017-Dec-10 07:20N 29°44' W 095°16'0 0.0
2017-Dec-10 06:56N 29°44' W 095°16'0 0.0
2017-Dec-10 06:17N 29°44' W 095°16'0 0.0
2017-Dec-10 05:59N 29°44' W 095°16'0 0.0
2017-Dec-10 05:20N 29°44' W 095°16'0 0.0
2017-Dec-10 04:56N 29°44' W 095°16'0 0.0
2017-Dec-10 04:05N 29°44' W 095°16'0 0.0
2017-Dec-10 03:35N 29°44' W 095°16'0 0.1
2017-Dec-10 03:29N 29°44' W 095°16'0 0.0
2017-Dec-10 02:56N 29°44' W 095°16'0 0.0
2017-Dec-10 01:38N 29°44' W 095°16'0 0.0
2017-Dec-10 01:20N 29°44' W 095°16'0 0.0
2017-Dec-10 00:53N 29°44' W 095°16'0 0.0
2017-Dec-10 00:26N 29°44' W 095°16'0 0.0
2017-Dec-09 23:14N 29°44' W 095°16'0 0.0
2017-Dec-09 18:02N 29°44' W 095°16'0 0.0
2017-Dec-09 17:50N 29°44' W 095°16'0 0.0
2017-Dec-09 17:08N 29°44' W 095°16'0 0.0
2017-Dec-09 16:56N 29°44' W 095°16'1 1.6
2017-Dec-09 16:30N 29°44' W 095°15'2 4.5
2017-Dec-09 16:00N 29°44' W 095°13'2 4.9
2017-Dec-09 15:30N 29°45' W 095°10'3 5.4
2017-Dec-09 15:00N 29°44' W 095°07'3 6.0
2017-Dec-09 14:30N 29°46' W 095°04'3 6.5
2017-Dec-09 14:00N 29°44' W 095°01'4 7.2
2017-Dec-09 13:30N 29°41' W 094°59'713.2
2017-Dec-09 13:00N 29°35' W 094°56'713.8
2017-Dec-09 12:30N 29°29' W 094°52'713.9
2017-Dec-09 12:00N 29°23' W 094°48'612.3
2017-Dec-09 11:30N 29°20' W 094°42'  
Track history (hours):
 
Tides and Currents Weather Stations Pressure Air Temp Water Temp Dewpoint Dewpoint Depression Visibility Wind Speed Wind Dir Waves Ship Positions

Bahri Yanbu

Last reported at 2017-Dec-11 17:00 UTC. Time now 2017-Dec-12 02:58 UTC.
Position N 29°32' W 094°54'.

Length 205 m; draft 7.8 m.

Type: Cargo ship. MMSI: 403532001.

Date/timePositionNaut miles runAvg speedWind from/ knotsBaromVisibWave heightAir tempDewpointWater temp
2017-Dec-11 17:00N 29°32' W 094°54'612.2
2017-Dec-11 16:30N 29°37' W 094°58'510.7
2017-Dec-11 16:00N 29°42' W 095°01'4 8.4
2017-Dec-11 15:30N 29°45' W 095°04'3 6.2
2017-Dec-11 15:00N 29°44' W 095°07'3 6.6
2017-Dec-11 14:30N 29°45' W 095°11'3 5.7
2017-Dec-11 14:00N 29°43' W 095°14'2 3.8
2017-Dec-11 13:26N 29°44' W 095°16'0 0.7
2017-Dec-11 12:57N 29°44' W 095°16'0 0.0
2017-Dec-11 12:27N 29°44' W 095°16'0 0.0
2017-Dec-11 11:54N 29°44' W 095°16'0 0.0
2017-Dec-11 11:30N 29°44' W 095°16'0 0.0
2017-Dec-11 10:57N 29°44' W 095°16'0 0.0
2017-Dec-11 10:30N 29°44' W 095°16'0 0.0
2017-Dec-11 09:50N 29°44' W 095°16'0 0.0
2017-Dec-11 09:29N 29°44' W 095°16'0 0.0
2017-Dec-11 08:47N 29°44' W 095°16'0 0.0
2017-Dec-11 08:29N 29°44' W 095°16'0 0.0
2017-Dec-11 07:53N 29°44' W 095°16'0 0.0
2017-Dec-11 06:59N 29°44' W 095°16'0 0.0
2017-Dec-11 06:26N 29°44' W 095°16'0 0.0
2017-Dec-11 05:59N 29°44' W 095°16'0 0.0
2017-Dec-11 05:23N 29°44' W 095°16'0 0.0
2017-Dec-11 04:56N 29°44' W 095°16'0 0.0
2017-Dec-11 04:20N 29°44' W 095°16'0 0.0
2017-Dec-11 03:47N 29°44' W 095°16'0 0.0
2017-Dec-11 03:11N 29°44' W 095°16'0 0.0
2017-Dec-11 02:59N 29°44' W 095°16'0 0.0
2017-Dec-11 02:14N 29°44' W 095°16'0 0.0
2017-Dec-11 01:53N 29°44' W 095°16'0 0.0
2017-Dec-11 01:17N 29°44' W 095°16'0 0.0
2017-Dec-11 00:56N 29°44' W 095°16'0 0.0
2017-Dec-10 19:14N 29°44' W 095°16'0 0.0
2017-Dec-10 18:59N 29°44' W 095°16'0 0.0
2017-Dec-10 18:20N 29°44' W 095°16'0 0.0
2017-Dec-10 17:50N 29°44' W 095°16'0 0.0
2017-Dec-10 17:14N 29°44' W 095°16'0 0.0
2017-Dec-10 16:56N 29°44' W 095°16'0 0.0
2017-Dec-10 16:26N 29°44' W 095°16'0 0.0
2017-Dec-10 15:53N 29°44' W 095°16'0 0.0
2017-Dec-10 15:29N 29°44' W 095°16'0 0.0
2017-Dec-10 14:59N 29°44' W 095°16'0 0.0
2017-Dec-10 14:26N 29°44' W 095°16'0 0.0
2017-Dec-10 13:53N 29°44' W 095°16'0 0.0
2017-Dec-10 13:26N 29°44' W 095°16'0 0.0
2017-Dec-10 12:32N 29°44' W 095°16'0 0.1
2017-Dec-10 12:29N 29°44' W 095°16'0 0.0
2017-Dec-10 11:50N 29°44' W 095°16'0 0.0
2017-Dec-10 11:26N 29°44' W 095°16'0 0.0
2017-Dec-10 10:38N 29°44' W 095°16'0 0.0
2017-Dec-10 10:11N 29°44' W 095°16'0 0.0
2017-Dec-10 09:56N 29°44' W 095°16'0 0.0
2017-Dec-10 09:20N 29°44' W 095°16'0 0.0
2017-Dec-10 08:59N 29°44' W 095°16'0 0.0
2017-Dec-10 08:26N 29°44' W 095°16'0 0.0
2017-Dec-10 07:59N 29°44' W 095°16'0 0.0
2017-Dec-10 07:20N 29°44' W 095°16'0 0.0
2017-Dec-10 06:56N 29°44' W 095°16'0 0.0
2017-Dec-10 06:17N 29°44' W 095°16'0 0.0
2017-Dec-10 05:59N 29°44' W 095°16'0 0.0
2017-Dec-10 05:20N 29°44' W 095°16'0 0.0
2017-Dec-10 04:56N 29°44' W 095°16'0 0.0
2017-Dec-10 04:05N 29°44' W 095°16'0 0.0
2017-Dec-10 03:35N 29°44' W 095°16'0 0.1
2017-Dec-10 03:29N 29°44' W 095°16'0 0.0
2017-Dec-10 02:56N 29°44' W 095°16'0 0.0
2017-Dec-10 01:38N 29°44' W 095°16'0 0.0
2017-Dec-10 01:20N 29°44' W 095°16'0 0.0
2017-Dec-10 00:53N 29°44' W 095°16'0 0.0
2017-Dec-10 00:26N 29°44' W 095°16'0 0.0
2017-Dec-09 23:14N 29°44' W 095°16'0 0.0
2017-Dec-09 18:02N 29°44' W 095°16'0 0.0
2017-Dec-09 17:50N 29°44' W 095°16'0 0.0
2017-Dec-09 17:08N 29°44' W 095°16'0 0.0
2017-Dec-09 16:56N 29°44' W 095°16'1 1.6
2017-Dec-09 16:30N 29°44' W 095°15'2 4.5
2017-Dec-09 16:00N 29°44' W 095°13'2 4.9
2017-Dec-09 15:30N 29°45' W 095°10'3 5.4
2017-Dec-09 15:00N 29°44' W 095°07'3 6.0
2017-Dec-09 14:30N 29°46' W 095°04'3 6.5
2017-Dec-09 14:00N 29°44' W 095°01'4 7.2
2017-Dec-09 13:30N 29°41' W 094°59'713.2
2017-Dec-09 13:00N 29°35' W 094°56'713.8
2017-Dec-09 12:30N 29°29' W 094°52'713.9
2017-Dec-09 12:00N 29°23' W 094°48'612.3
2017-Dec-09 11:30N 29°20' W 094°42'  

Dump ship's entire track history